sensor_id;sensor_type;location;lat;lon;timestamp;temperature;humidity
11079;DHT22;5592;49.234;7.268;2023-07-13T00:02:15;12.50;99.90
11079;DHT22;5592;49.234;7.268;2023-07-13T00:04:41;12.40;99.90
11079;DHT22;5592;49.234;7.268;2023-07-13T00:07:08;12.30;99.90
11079;DHT22;5592;49.234;7.268;2023-07-13T00:09:34;12.20;99.90
11079;DHT22;5592;49.234;7.268;2023-07-13T00:12:00;12.20;99.90
11079;DHT22;5592;49.234;7.268;2023-07-13T00:14:27;12.20;99.90
11079;DHT22;5592;49.234;7.268;2023-07-13T00:16:53;12.10;99.90
11079;DHT22;5592;49.234;7.268;2023-07-13T00:19:20;12.00;99.90
11079;DHT22;5592;49.234;7.268;2023-07-13T00:21:46;11.90;99.90
11079;DHT22;5592;49.234;7.268;2023-07-13T00:24:15;11.90;99.90
11079;DHT22;5592;49.234;7.268;2023-07-13T00:26:43;11.80;99.90
11079;DHT22;5592;49.234;7.268;2023-07-13T00:29:12;11.80;99.90
11079;DHT22;5592;49.234;7.268;2023-07-13T00:31:38;11.80;99.90
11079;DHT22;5592;49.234;7.268;2023-07-13T00:34:04;11.80;99.90
11079;DHT22;5592;49.234;7.268;2023-07-13T00:36:31;11.70;99.90
11079;DHT22;5592;49.234;7.268;2023-07-13T00:38:56;11.70;99.90
11079;DHT22;5592;49.234;7.268;2023-07-13T00:41:22;11.60;99.90
11079;DHT22;5592;49.234;7.268;2023-07-13T00:43:47;11.60;99.90
11079;DHT22;5592;49.234;7.268;2023-07-13T00:46:23;11.60;99.90
11079;DHT22;5592;49.234;7.268;2023-07-13T00:48:50;11.60;99.90
11079;DHT22;5592;49.234;7.268;2023-07-13T00:51:21;11.80;99.90
11079;DHT22;5592;49.234;7.268;2023-07-13T00:53:47;11.90;99.90
11079;DHT22;5592;49.234;7.268;2023-07-13T00:56:13;11.90;99.90
11079;DHT22;5592;49.234;7.268;2023-07-13T00:58:39;11.90;99.90
11079;DHT22;5592;49.234;7.268;2023-07-13T01:01:04;11.80;99.90
11079;DHT22;5592;49.234;7.268;2023-07-13T01:03:30;11.70;99.90
11079;DHT22;5592;49.234;7.268;2023-07-13T01:05:56;11.70;99.90
11079;DHT22;5592;49.234;7.268;2023-07-13T01:08:22;11.60;99.90
11079;DHT22;5592;49.234;7.268;2023-07-13T01:10:55;11.50;99.90
11079;DHT22;5592;49.234;7.268;2023-07-13T01:13:22;11.50;99.90
11079;DHT22;5592;49.234;7.268;2023-07-13T01:15:49;11.50;99.90
11079;DHT22;5592;49.234;7.268;2023-07-13T01:18:25;11.40;99.90
11079;DHT22;5592;49.234;7.268;2023-07-13T01:20:55;11.40;99.90
11079;DHT22;5592;49.234;7.268;2023-07-13T01:23:21;11.30;99.90
11079;DHT22;5592;49.234;7.268;2023-07-13T01:25:46;11.30;99.90
11079;DHT22;5592;49.234;7.268;2023-07-13T01:28:12;11.30;99.90
11079;DHT22;5592;49.234;7.268;2023-07-13T01:30:39;11.20;99.90
11079;DHT22;5592;49.234;7.268;2023-07-13T01:33:07;11.20;99.90
11079;DHT22;5592;49.234;7.268;2023-07-13T01:35:33;11.10;99.90
11079;DHT22;5592;49.234;7.268;2023-07-13T01:37:59;11.10;99.90
11079;DHT22;5592;49.234;7.268;2023-07-13T01:40:27;11.10;99.90
11079;DHT22;5592;49.234;7.268;2023-07-13T01:42:53;11.00;99.90
11079;DHT22;5592;49.234;7.268;2023-07-13T01:45:19;11.00;99.90
11079;DHT22;5592;49.234;7.268;2023-07-13T01:47:44;11.00;99.90
11079;DHT22;5592;49.234;7.268;2023-07-13T01:50:10;11.00;99.90
11079;DHT22;5592;49.234;7.268;2023-07-13T01:52:36;11.00;99.90
11079;DHT22;5592;49.234;7.268;2023-07-13T01:55:01;11.00;99.90
11079;DHT22;5592;49.234;7.268;2023-07-13T01:57:27;10.90;99.90
11079;DHT22;5592;49.234;7.268;2023-07-13T01:59:53;10.90;99.90
11079;DHT22;5592;49.234;7.268;2023-07-13T02:02:19;10.90;99.90
11079;DHT22;5592;49.234;7.268;2023-07-13T02:04:45;10.90;99.90
11079;DHT22;5592;49.234;7.268;2023-07-13T02:07:10;10.80;99.90
11079;DHT22;5592;49.234;7.268;2023-07-13T02:09:36;10.80;99.90
11079;DHT22;5592;49.234;7.268;2023-07-13T02:12:02;10.80;99.90
11079;DHT22;5592;49.234;7.268;2023-07-13T02:14:27;10.70;99.90
11079;DHT22;5592;49.234;7.268;2023-07-13T02:16:53;10.70;99.90
11079;DHT22;5592;49.234;7.268;2023-07-13T02:19:19;10.70;99.90
11079;DHT22;5592;49.234;7.268;2023-07-13T02:21:44;10.60;99.90
11079;DHT22;5592;49.234;7.268;2023-07-13T02:24:10;10.70;99.90
11079;DHT22;5592;49.234;7.268;2023-07-13T02:26:40;10.80;99.90
11079;DHT22;5592;49.234;7.268;2023-07-13T02:29:06;10.80;99.90
11079;DHT22;5592;49.234;7.268;2023-07-13T02:31:31;10.80;99.90
11079;DHT22;5592;49.234;7.268;2023-07-13T02:33:57;10.70;99.90
11079;DHT22;5592;49.234;7.268;2023-07-13T02:36:22;10.70;99.90
11079;DHT22;5592;49.234;7.268;2023-07-13T02:38:50;10.60;99.90
11079;DHT22;5592;49.234;7.268;2023-07-13T02:41:15;10.60;99.90
11079;DHT22;5592;49.234;7.268;2023-07-13T02:43:41;10.50;99.90
11079;DHT22;5592;49.234;7.268;2023-07-13T02:46:06;10.50;99.90
11079;DHT22;5592;49.234;7.268;2023-07-13T02:48:36;10.60;99.90
11079;DHT22;5592;49.234;7.268;2023-07-13T02:51:02;10.70;99.90
11079;DHT22;5592;49.234;7.268;2023-07-13T02:53:28;10.70;99.90
11079;DHT22;5592;49.234;7.268;2023-07-13T02:55:53;10.70;99.90
11079;DHT22;5592;49.234;7.268;2023-07-13T02:58:19;10.70;99.90
11079;DHT22;5592;49.234;7.268;2023-07-13T03:00:46;10.70;99.90
11079;DHT22;5592;49.234;7.268;2023-07-13T03:03:15;10.70;99.90
11079;DHT22;5592;49.234;7.268;2023-07-13T03:05:42;10.80;99.90
11079;DHT22;5592;49.234;7.268;2023-07-13T03:08:10;10.80;99.90
11079;DHT22;5592;49.234;7.268;2023-07-13T03:10:36;10.90;99.90
11079;DHT22;5592;49.234;7.268;2023-07-13T03:13:02;10.90;99.90
11079;DHT22;5592;49.234;7.268;2023-07-13T03:15:28;11.00;99.90
11079;DHT22;5592;49.234;7.268;2023-07-13T03:17:54;11.00;99.90
11079;DHT22;5592;49.234;7.268;2023-07-13T03:20:19;11.00;99.90
11079;DHT22;5592;49.234;7.268;2023-07-13T03:22:45;11.00;99.90
11079;DHT22;5592;49.234;7.268;2023-07-13T03:25:11;11.00;99.90
11079;DHT22;5592;49.234;7.268;2023-07-13T03:27:37;11.00;99.90
11079;DHT22;5592;49.234;7.268;2023-07-13T03:30:06;11.00;99.90
11079;DHT22;5592;49.234;7.268;2023-07-13T03:32:32;11.00;99.90
11079;DHT22;5592;49.234;7.268;2023-07-13T03:34:58;11.00;99.90
11079;DHT22;5592;49.234;7.268;2023-07-13T03:37:24;11.00;99.90
11079;DHT22;5592;49.234;7.268;2023-07-13T03:39:50;11.00;99.90
11079;DHT22;5592;49.234;7.268;2023-07-13T03:42:15;10.90;99.90
11079;DHT22;5592;49.234;7.268;2023-07-13T03:44:42;11.00;99.90
11079;DHT22;5592;49.234;7.268;2023-07-13T03:47:11;11.00;99.90
11079;DHT22;5592;49.234;7.268;2023-07-13T03:49:37;11.00;99.90
11079;DHT22;5592;49.234;7.268;2023-07-13T03:52:02;11.00;99.90
11079;DHT22;5592;49.234;7.268;2023-07-13T03:54:28;11.10;99.90
11079;DHT22;5592;49.234;7.268;2023-07-13T03:56:54;11.10;99.90
11079;DHT22;5592;49.234;7.268;2023-07-13T03:59:20;11.10;99.90
11079;DHT22;5592;49.234;7.268;2023-07-13T04:01:46;11.10;99.90
11079;DHT22;5592;49.234;7.268;2023-07-13T04:04:11;11.10;99.90
11079;DHT22;5592;49.234;7.268;2023-07-13T04:06:37;11.00;99.90
11079;DHT22;5592;49.234;7.268;2023-07-13T04:09:03;11.10;99.90
11079;DHT22;5592;49.234;7.268;2023-07-13T04:11:31;11.10;99.90
11079;DHT22;5592;49.234;7.268;2023-07-13T04:13:57;11.20;99.90
11079;DHT22;5592;49.234;7.268;2023-07-13T04:16:23;11.20;99.90
11079;DHT22;5592;49.234;7.268;2023-07-13T04:18:49;11.30;99.90
11079;DHT22;5592;49.234;7.268;2023-07-13T04:21:15;11.40;99.90
11079;DHT22;5592;49.234;7.268;2023-07-13T04:23:41;11.50;99.90
11079;DHT22;5592;49.234;7.268;2023-07-13T04:26:08;11.60;99.90
11079;DHT22;5592;49.234;7.268;2023-07-13T04:28:34;11.70;99.90
11079;DHT22;5592;49.234;7.268;2023-07-13T04:31:02;11.80;99.90
11079;DHT22;5592;49.234;7.268;2023-07-13T04:33:28;11.90;99.90
11079;DHT22;5592;49.234;7.268;2023-07-13T04:35:55;11.90;99.90
11079;DHT22;5592;49.234;7.268;2023-07-13T04:38:24;12.00;99.90
11079;DHT22;5592;49.234;7.268;2023-07-13T04:40:50;12.10;99.90
11079;DHT22;5592;49.234;7.268;2023-07-13T04:43:16;12.20;99.90
11079;DHT22;5592;49.234;7.268;2023-07-13T04:45:42;12.30;99.90
11079;DHT22;5592;49.234;7.268;2023-07-13T04:48:07;12.40;99.90
11079;DHT22;5592;49.234;7.268;2023-07-13T04:50:36;12.60;99.90
11079;DHT22;5592;49.234;7.268;2023-07-13T04:53:01;12.70;99.90
11079;DHT22;5592;49.234;7.268;2023-07-13T04:55:28;12.90;99.90
11079;DHT22;5592;49.234;7.268;2023-07-13T04:57:56;13.20;99.90
11079;DHT22;5592;49.234;7.268;2023-07-13T05:00:24;13.60;99.90
11079;DHT22;5592;49.234;7.268;2023-07-13T05:02:57;14.30;99.90
11079;DHT22;5592;49.234;7.268;2023-07-13T05:05:24;15.20;99.90
11079;DHT22;5592;49.234;7.268;2023-07-13T05:07:49;16.30;99.90
11079;DHT22;5592;49.234;7.268;2023-07-13T05:10:16;17.40;99.90
11079;DHT22;5592;49.234;7.268;2023-07-13T05:12:41;18.50;99.90
11079;DHT22;5592;49.234;7.268;2023-07-13T05:15:09;19.40;99.90
11079;DHT22;5592;49.234;7.268;2023-07-13T05:17:34;20.10;99.90
11079;DHT22;5592;49.234;7.268;2023-07-13T05:20:00;20.90;99.90
11079;DHT22;5592;49.234;7.268;2023-07-13T05:22:26;21.40;99.90
11079;DHT22;5592;49.234;7.268;2023-07-13T05:24:51;22.20;99.90
11079;DHT22;5592;49.234;7.268;2023-07-13T05:27:17;23.40;99.90
11079;DHT22;5592;49.234;7.268;2023-07-13T05:29:42;24.40;99.90
11079;DHT22;5592;49.234;7.268;2023-07-13T05:32:08;24.60;99.90
11079;DHT22;5592;49.234;7.268;2023-07-13T05:34:33;25.00;99.90
11079;DHT22;5592;49.234;7.268;2023-07-13T05:36:59;25.50;99.90
11079;DHT22;5592;49.234;7.268;2023-07-13T05:39:25;25.90;99.90
11079;DHT22;5592;49.234;7.268;2023-07-13T05:41:52;25.80;99.90
11079;DHT22;5592;49.234;7.268;2023-07-13T05:44:18;25.70;99.90
11079;DHT22;5592;49.234;7.268;2023-07-13T05:46:44;25.80;99.90
11079;DHT22;5592;49.234;7.268;2023-07-13T05:49:10;26.10;99.90
11079;DHT22;5592;49.234;7.268;2023-07-13T05:51:36;26.60;99.90
11079;DHT22;5592;49.234;7.268;2023-07-13T05:54:02;27.30;99.90
11079;DHT22;5592;49.234;7.268;2023-07-13T05:56:27;28.10;99.90
11079;DHT22;5592;49.234;7.268;2023-07-13T05:58:53;28.50;99.90
11079;DHT22;5592;49.234;7.268;2023-07-13T06:01:18;28.50;99.90
11079;DHT22;5592;49.234;7.268;2023-07-13T06:03:46;29.00;99.90
11079;DHT22;5592;49.234;7.268;2023-07-13T06:06:12;29.40;99.90
11079;DHT22;5592;49.234;7.268;2023-07-13T06:08:38;29.80;99.90
11079;DHT22;5592;49.234;7.268;2023-07-13T06:11:24;30.10;99.90
11079;DHT22;5592;49.234;7.268;2023-07-13T06:13:51;30.30;99.90
11079;DHT22;5592;49.234;7.268;2023-07-13T06:16:17;30.50;99.90
11079;DHT22;5592;49.234;7.268;2023-07-13T06:18:43;30.70;99.70
11079;DHT22;5592;49.234;7.268;2023-07-13T06:21:12;31.10;99.50
11079;DHT22;5592;49.234;7.268;2023-07-13T06:23:38;31.60;98.10
11079;DHT22;5592;49.234;7.268;2023-07-13T06:26:04;31.70;97.50
11079;DHT22;5592;49.234;7.268;2023-07-13T06:28:31;32.30;96.70
11079;DHT22;5592;49.234;7.268;2023-07-13T06:30:58;32.30;95.50
11079;DHT22;5592;49.234;7.268;2023-07-13T06:33:24;32.90;95.00
11079;DHT22;5592;49.234;7.268;2023-07-13T06:35:50;33.50;95.40
11079;DHT22;5592;49.234;7.268;2023-07-13T06:38:16;34.30;92.20
11079;DHT22;5592;49.234;7.268;2023-07-13T06:40:42;33.60;90.50
11079;DHT22;5592;49.234;7.268;2023-07-13T06:43:10;33.80;86.80
11079;DHT22;5592;49.234;7.268;2023-07-13T06:45:41;34.10;88.30
11079;DHT22;5592;49.234;7.268;2023-07-13T06:48:07;34.90;82.20
11079;DHT22;5592;49.234;7.268;2023-07-13T06:50:33;35.10;82.80
11079;DHT22;5592;49.234;7.268;2023-07-13T06:52:59;34.30;77.90
11079;DHT22;5592;49.234;7.268;2023-07-13T06:55:25;32.80;80.30
11079;DHT22;5592;49.234;7.268;2023-07-13T06:57:51;32.20;82.10
11079;DHT22;5592;49.234;7.268;2023-07-13T07:00:16;32.40;83.00
11079;DHT22;5592;49.234;7.268;2023-07-13T07:02:42;33.00;82.70
11079;DHT22;5592;49.234;7.268;2023-07-13T07:05:08;33.60;80.50
11079;DHT22;5592;49.234;7.268;2023-07-13T07:07:33;34.30;77.10
11079;DHT22;5592;49.234;7.268;2023-07-13T07:09:59;34.90;76.50
11079;DHT22;5592;49.234;7.268;2023-07-13T07:12:25;35.70;74.60
11079;DHT22;5592;49.234;7.268;2023-07-13T07:14:50;35.60;73.70
11079;DHT22;5592;49.234;7.268;2023-07-13T07:17:16;35.50;72.20
11079;DHT22;5592;49.234;7.268;2023-07-13T07:19:41;35.40;70.50
11079;DHT22;5592;49.234;7.268;2023-07-13T07:22:07;35.20;72.20
11079;DHT22;5592;49.234;7.268;2023-07-13T07:24:33;35.10;70.20
11079;DHT22;5592;49.234;7.268;2023-07-13T07:26:58;34.60;69.10
11079;DHT22;5592;49.234;7.268;2023-07-13T07:29:24;34.00;71.00
11079;DHT22;5592;49.234;7.268;2023-07-13T07:31:52;33.00;73.80
11079;DHT22;5592;49.234;7.268;2023-07-13T07:34:18;32.40;73.60
11079;DHT22;5592;49.234;7.268;2023-07-13T07:36:47;30.60;74.70
11079;DHT22;5592;49.234;7.268;2023-07-13T07:39:13;30.50;78.20
11079;DHT22;5592;49.234;7.268;2023-07-13T07:41:38;30.80;77.20
11079;DHT22;5592;49.234;7.268;2023-07-13T07:44:04;30.90;75.90
11079;DHT22;5592;49.234;7.268;2023-07-13T07:46:32;30.80;74.90
11079;DHT22;5592;49.234;7.268;2023-07-13T07:48:57;30.60;76.80
11079;DHT22;5592;49.234;7.268;2023-07-13T07:51:23;30.00;78.10
11079;DHT22;5592;49.234;7.268;2023-07-13T07:53:48;29.20;80.40
11079;DHT22;5592;49.234;7.268;2023-07-13T07:56:14;28.60;78.70
11079;DHT22;5592;49.234;7.268;2023-07-13T07:58:44;28.00;81.00
11079;DHT22;5592;49.234;7.268;2023-07-13T08:01:09;27.60;83.50
11079;DHT22;5592;49.234;7.268;2023-07-13T08:03:35;27.60;84.60
11079;DHT22;5592;49.234;7.268;2023-07-13T08:06:01;27.80;84.10
11079;DHT22;5592;49.234;7.268;2023-07-13T08:08:26;28.40;85.60
11079;DHT22;5592;49.234;7.268;2023-07-13T08:10:52;29.20;80.80
11079;DHT22;5592;49.234;7.268;2023-07-13T08:13:18;29.30;80.40
11079;DHT22;5592;49.234;7.268;2023-07-13T08:15:44;29.40;81.70
11079;DHT22;5592;49.234;7.268;2023-07-13T08:18:10;29.10;80.90
11079;DHT22;5592;49.234;7.268;2023-07-13T08:20:39;28.90;82.10
11079;DHT22;5592;49.234;7.268;2023-07-13T08:23:05;28.70;81.30
11079;DHT22;5592;49.234;7.268;2023-07-13T08:25:31;28.20;81.70
11079;DHT22;5592;49.234;7.268;2023-07-13T08:27:57;27.80;82.40
11079;DHT22;5592;49.234;7.268;2023-07-13T08:30:23;27.60;83.40
11079;DHT22;5592;49.234;7.268;2023-07-13T08:32:48;27.80;85.70
11079;DHT22;5592;49.234;7.268;2023-07-13T08:35:15;27.80;84.20
11079;DHT22;5592;49.234;7.268;2023-07-13T08:37:42;27.30;84.00
11079;DHT22;5592;49.234;7.268;2023-07-13T08:40:11;27.10;85.00
11079;DHT22;5592;49.234;7.268;2023-07-13T08:42:46;26.70;86.70
11079;DHT22;5592;49.234;7.268;2023-07-13T08:47:44;26.70;89.00
11079;DHT22;5592;49.234;7.268;2023-07-13T08:50:17;27.70;86.80
11079;DHT22;5592;49.234;7.268;2023-07-13T08:52:45;28.70;85.30
11079;DHT22;5592;49.234;7.268;2023-07-13T08:55:21;30.10;83.40
11079;DHT22;5592;49.234;7.268;2023-07-13T08:57:53;31.40;80.30
11079;DHT22;5592;49.234;7.268;2023-07-13T09:00:20;32.60;77.00
11079;DHT22;5592;49.234;7.268;2023-07-13T09:03:12;33.60;75.50
11079;DHT22;5592;49.234;7.268;2023-07-13T09:05:42;33.50;74.10
11079;DHT22;5592;49.234;7.268;2023-07-13T09:10:48;32.40;70.70
11079;DHT22;5592;49.234;7.268;2023-07-13T09:13:29;30.90;76.70
11079;DHT22;5592;49.234;7.268;2023-07-13T09:16:00;31.00;78.30
11079;DHT22;5592;49.234;7.268;2023-07-13T09:18:39;30.80;75.20
11079;DHT22;5592;49.234;7.268;2023-07-13T09:21:11;30.50;78.60
11079;DHT22;5592;49.234;7.268;2023-07-13T09:23:38;30.80;76.30
11079;DHT22;5592;49.234;7.268;2023-07-13T09:26:15;30.90;74.00
11079;DHT22;5592;49.234;7.268;2023-07-13T09:28:47;31.00;76.10
11079;DHT22;5592;49.234;7.268;2023-07-13T09:31:26;30.90;75.00
11079;DHT22;5592;49.234;7.268;2023-07-13T09:33:56;30.80;73.60
11079;DHT22;5592;49.234;7.268;2023-07-13T09:36:27;31.30;75.60
11079;DHT22;5592;49.234;7.268;2023-07-13T09:41:49;31.60;77.80
11079;DHT22;5592;49.234;7.268;2023-07-13T09:44:18;33.30;73.10
11079;DHT22;5592;49.234;7.268;2023-07-13T09:46:55;34.70;71.50
11079;DHT22;5592;49.234;7.268;2023-07-13T09:49:25;35.40;68.80
11079;DHT22;5592;49.234;7.268;2023-07-13T09:51:58;35.40;66.90
11079;DHT22;5592;49.234;7.268;2023-07-13T09:54:26;35.30;67.80
11079;DHT22;5592;49.234;7.268;2023-07-13T09:56:58;35.50;67.10
11079;DHT22;5592;49.234;7.268;2023-07-13T09:59:29;34.30;67.50
11079;DHT22;5592;49.234;7.268;2023-07-13T10:01:57;33.10;67.10
11079;DHT22;5592;49.234;7.268;2023-07-13T10:04:30;31.90;69.60
11079;DHT22;5592;49.234;7.268;2023-07-13T10:07:11;31.90;70.70
11079;DHT22;5592;49.234;7.268;2023-07-13T10:09:38;32.00;69.60
11079;DHT22;5592;49.234;7.268;2023-07-13T10:12:13;31.70;68.30
11079;DHT22;5592;49.234;7.268;2023-07-13T10:14:41;31.90;71.00
11079;DHT22;5592;49.234;7.268;2023-07-13T10:17:12;32.60;66.40
11079;DHT22;5592;49.234;7.268;2023-07-13T10:19:41;32.70;64.80
11079;DHT22;5592;49.234;7.268;2023-07-13T10:22:27;32.90;66.50
11079;DHT22;5592;49.234;7.268;2023-07-13T10:24:55;32.10;66.50
11079;DHT22;5592;49.234;7.268;2023-07-13T10:27:33;31.30;70.60
11079;DHT22;5592;49.234;7.268;2023-07-13T10:30:06;31.70;69.00
11079;DHT22;5592;49.234;7.268;2023-07-13T10:32:35;32.10;68.90
11079;DHT22;5592;49.234;7.268;2023-07-13T10:35:01;32.60;67.70
11079;DHT22;5592;49.234;7.268;2023-07-13T10:40:14;32.10;67.60
11079;DHT22;5592;49.234;7.268;2023-07-13T10:42:45;31.20;68.70
11079;DHT22;5592;49.234;7.268;2023-07-13T10:45:20;31.10;69.70
11079;DHT22;5592;49.234;7.268;2023-07-13T10:47:47;30.80;70.90
11079;DHT22;5592;49.234;7.268;2023-07-13T10:50:20;29.70;71.70
11079;DHT22;5592;49.234;7.268;2023-07-13T10:52:47;29.40;75.60
11079;DHT22;5592;49.234;7.268;2023-07-13T10:58:18;28.10;73.40
11079;DHT22;5592;49.234;7.268;2023-07-13T11:01:06;27.10;74.90
11079;DHT22;5592;49.234;7.268;2023-07-13T11:03:46;26.80;76.60
11079;DHT22;5592;49.234;7.268;2023-07-13T11:13:56;26.40;77.60
11079;DHT22;5592;49.234;7.268;2023-07-13T11:21:28;26.00;78.70
11079;DHT22;5592;49.234;7.268;2023-07-13T11:24:16;26.10;79.80
11079;DHT22;5592;49.234;7.268;2023-07-13T11:31:51;26.50;75.80
11079;DHT22;5592;49.234;7.268;2023-07-13T11:34:28;26.50;78.40
11079;DHT22;5592;49.234;7.268;2023-07-13T11:36:57;27.00;78.80
11079;DHT22;5592;49.234;7.268;2023-07-13T11:39:35;27.70;77.30
11079;DHT22;5592;49.234;7.268;2023-07-13T11:42:12;27.20;74.50
11079;DHT22;5592;49.234;7.268;2023-07-13T11:44:43;26.90;75.90
11079;DHT22;5592;49.234;7.268;2023-07-13T11:47:17;27.10;77.30
11079;DHT22;5592;49.234;7.268;2023-07-13T11:49:54;27.20;74.50
11079;DHT22;5592;49.234;7.268;2023-07-13T11:52:26;27.50;75.70
11079;DHT22;5592;49.234;7.268;2023-07-13T11:54:56;27.80;75.90
11079;DHT22;5592;49.234;7.268;2023-07-13T11:57:28;28.10;73.20
11079;DHT22;5592;49.234;7.268;2023-07-13T11:59:58;27.80;76.90
11079;DHT22;5592;49.234;7.268;2023-07-13T12:02:37;27.80;73.80
11079;DHT22;5592;49.234;7.268;2023-07-13T12:05:05;27.60;74.60
11079;DHT22;5592;49.234;7.268;2023-07-13T12:07:32;27.90;74.30
11079;DHT22;5592;49.234;7.268;2023-07-13T12:10:21;28.10;74.00
11079;DHT22;5592;49.234;7.268;2023-07-13T12:15:29;27.70;74.60
11079;DHT22;5592;49.234;7.268;2023-07-13T12:17:56;27.60;75.70
11079;DHT22;5592;49.234;7.268;2023-07-13T12:20:27;27.30;76.30
11079;DHT22;5592;49.234;7.268;2023-07-13T12:22:55;28.10;75.80
11079;DHT22;5592;49.234;7.268;2023-07-13T12:25:28;28.50;74.10
11079;DHT22;5592;49.234;7.268;2023-07-13T12:27:55;28.40;73.20
11079;DHT22;5592;49.234;7.268;2023-07-13T12:30:32;28.40;73.30
11079;DHT22;5592;49.234;7.268;2023-07-13T12:33:10;28.00;72.40
11079;DHT22;5592;49.234;7.268;2023-07-13T12:35:49;27.70;71.10
11079;DHT22;5592;49.234;7.268;2023-07-13T12:38:16;27.70;72.50
11079;DHT22;5592;49.234;7.268;2023-07-13T12:40:42;27.20;71.70
11079;DHT22;5592;49.234;7.268;2023-07-13T12:43:17;27.10;73.10
11079;DHT22;5592;49.234;7.268;2023-07-13T12:46:05;26.60;74.60
11079;DHT22;5592;49.234;7.268;2023-07-13T12:48:42;26.60;76.30
11079;DHT22;5592;49.234;7.268;2023-07-13T12:51:12;26.80;75.90
11079;DHT22;5592;49.234;7.268;2023-07-13T12:53:43;27.10;74.80
11079;DHT22;5592;49.234;7.268;2023-07-13T12:56:19;27.50;72.60
11079;DHT22;5592;49.234;7.268;2023-07-13T12:58:47;27.90;75.00
11079;DHT22;5592;49.234;7.268;2023-07-13T13:01:17;27.90;74.70
11079;DHT22;5592;49.234;7.268;2023-07-13T13:03:53;27.70;74.00
11079;DHT22;5592;49.234;7.268;2023-07-13T13:08:49;27.60;73.70
11079;DHT22;5592;49.234;7.268;2023-07-13T13:11:16;27.40;77.80
11079;DHT22;5592;49.234;7.268;2023-07-13T13:13:50;27.20;75.20
11079;DHT22;5592;49.234;7.268;2023-07-13T13:16:26;27.40;75.60
11079;DHT22;5592;49.234;7.268;2023-07-13T13:18:56;27.60;76.00
11079;DHT22;5592;49.234;7.268;2023-07-13T13:21:26;27.50;74.60
11079;DHT22;5592;49.234;7.268;2023-07-13T13:23:52;27.00;76.60
11079;DHT22;5592;49.234;7.268;2023-07-13T13:26:19;26.90;76.40
11079;DHT22;5592;49.234;7.268;2023-07-13T13:28:45;26.80;76.20
11079;DHT22;5592;49.234;7.268;2023-07-13T13:31:13;27.10;78.00
11079;DHT22;5592;49.234;7.268;2023-07-13T13:33:43;27.50;77.20
11079;DHT22;5592;49.234;7.268;2023-07-13T13:36:22;27.70;75.40
11079;DHT22;5592;49.234;7.268;2023-07-13T13:38:50;27.70;74.70
11079;DHT22;5592;49.234;7.268;2023-07-13T13:41:16;27.40;73.50
11079;DHT22;5592;49.234;7.268;2023-07-13T13:43:42;27.00;74.80
11079;DHT22;5592;49.234;7.268;2023-07-13T13:46:20;26.60;74.20
11079;DHT22;5592;49.234;7.268;2023-07-13T13:48:47;26.40;75.80
11079;DHT22;5592;49.234;7.268;2023-07-13T13:51:21;26.50;75.70
11079;DHT22;5592;49.234;7.268;2023-07-13T13:53:48;26.60;76.60
11079;DHT22;5592;49.234;7.268;2023-07-13T13:56:15;26.80;76.30
11079;DHT22;5592;49.234;7.268;2023-07-13T13:58:40;26.90;74.60
11079;DHT22;5592;49.234;7.268;2023-07-13T14:01:22;26.40;74.60
11079;DHT22;5592;49.234;7.268;2023-07-13T14:03:50;26.30;75.40
11079;DHT22;5592;49.234;7.268;2023-07-13T14:06:17;26.50;74.20
11079;DHT22;5592;49.234;7.268;2023-07-13T14:08:43;26.40;73.50
11079;DHT22;5592;49.234;7.268;2023-07-13T14:11:13;26.40;74.20
11079;DHT22;5592;49.234;7.268;2023-07-13T14:13:52;26.20;74.00
11079;DHT22;5592;49.234;7.268;2023-07-13T14:16:20;26.20;74.60
11079;DHT22;5592;49.234;7.268;2023-07-13T14:18:47;26.20;75.20
11079;DHT22;5592;49.234;7.268;2023-07-13T14:21:34;26.30;75.50
11079;DHT22;5592;49.234;7.268;2023-07-13T14:23:59;26.30;76.80
11079;DHT22;5592;49.234;7.268;2023-07-13T14:26:26;26.50;76.60
11079;DHT22;5592;49.234;7.268;2023-07-13T14:28:56;26.60;75.30
11079;DHT22;5592;49.234;7.268;2023-07-13T14:31:25;26.80;75.60
11079;DHT22;5592;49.234;7.268;2023-07-13T14:33:50;26.90;76.20
11079;DHT22;5592;49.234;7.268;2023-07-13T14:36:48;26.80;75.30
11079;DHT22;5592;49.234;7.268;2023-07-13T14:39:17;26.80;76.60
11079;DHT22;5592;49.234;7.268;2023-07-13T14:41:44;26.50;75.40
11079;DHT22;5592;49.234;7.268;2023-07-13T14:44:16;26.10;76.50
11079;DHT22;5592;49.234;7.268;2023-07-13T14:46:44;26.00;76.70
11079;DHT22;5592;49.234;7.268;2023-07-13T14:49:25;25.70;78.00
11079;DHT22;5592;49.234;7.268;2023-07-13T14:51:51;25.70;77.90
11079;DHT22;5592;49.234;7.268;2023-07-13T14:54:17;25.90;77.20
11079;DHT22;5592;49.234;7.268;2023-07-13T14:56:43;25.80;77.40
11079;DHT22;5592;49.234;7.268;2023-07-13T14:59:08;25.70;79.00
11079;DHT22;5592;49.234;7.268;2023-07-13T15:01:36;25.70;81.00
11079;DHT22;5592;49.234;7.268;2023-07-13T15:04:02;25.60;77.40
11079;DHT22;5592;49.234;7.268;2023-07-13T15:06:29;25.50;78.30
11079;DHT22;5592;49.234;7.268;2023-07-13T15:08:57;25.40;77.70
11079;DHT22;5592;49.234;7.268;2023-07-13T15:11:22;25.10;78.00
11079;DHT22;5592;49.234;7.268;2023-07-13T15:13:48;25.20;77.40
11079;DHT22;5592;49.234;7.268;2023-07-13T15:16:26;25.20;79.10
11079;DHT22;5592;49.234;7.268;2023-07-13T15:18:52;24.80;80.30
11079;DHT22;5592;49.234;7.268;2023-07-13T15:21:21;24.60;80.30
11079;DHT22;5592;49.234;7.268;2023-07-13T15:23:51;24.40;81.00
11079;DHT22;5592;49.234;7.268;2023-07-13T15:26:18;24.40;80.70
11079;DHT22;5592;49.234;7.268;2023-07-13T15:28:45;24.50;80.20
11079;DHT22;5592;49.234;7.268;2023-07-13T15:31:24;24.80;77.30
11079;DHT22;5592;49.234;7.268;2023-07-13T15:33:52;24.90;77.40
11079;DHT22;5592;49.234;7.268;2023-07-13T15:36:19;24.80;79.40
11079;DHT22;5592;49.234;7.268;2023-07-13T15:38:47;24.90;79.00
11079;DHT22;5592;49.234;7.268;2023-07-13T15:41:25;25.20;76.00
11079;DHT22;5592;49.234;7.268;2023-07-13T15:43:53;25.30;75.90
11079;DHT22;5592;49.234;7.268;2023-07-13T15:46:21;25.30;76.10
11079;DHT22;5592;49.234;7.268;2023-07-13T15:48:48;25.20;76.10
11079;DHT22;5592;49.234;7.268;2023-07-13T15:51:25;25.00;77.60
11079;DHT22;5592;49.234;7.268;2023-07-13T15:53:57;24.90;76.90
11079;DHT22;5592;49.234;7.268;2023-07-13T15:56:27;24.80;77.60
11079;DHT22;5592;49.234;7.268;2023-07-13T15:58:55;24.80;78.10
11079;DHT22;5592;49.234;7.268;2023-07-13T16:01:22;24.90;79.50
11079;DHT22;5592;49.234;7.268;2023-07-13T16:03:49;24.80;77.10
11079;DHT22;5592;49.234;7.268;2023-07-13T16:06:24;24.80;79.90
11079;DHT22;5592;49.234;7.268;2023-07-13T16:08:51;24.80;79.40
11079;DHT22;5592;49.234;7.268;2023-07-13T16:11:21;24.70;79.80
11079;DHT22;5592;49.234;7.268;2023-07-13T16:13:48;24.60;80.30
11079;DHT22;5592;49.234;7.268;2023-07-13T16:16:26;24.60;80.20
11079;DHT22;5592;49.234;7.268;2023-07-13T16:18:54;24.50;79.30
11079;DHT22;5592;49.234;7.268;2023-07-13T16:21:26;24.50;80.90
11079;DHT22;5592;49.234;7.268;2023-07-13T16:23:52;24.40;79.80
11079;DHT22;5592;49.234;7.268;2023-07-13T16:26:35;24.30;80.70
11079;DHT22;5592;49.234;7.268;2023-07-13T16:29:16;24.30;80.30
11079;DHT22;5592;49.234;7.268;2023-07-13T16:32:05;24.20;79.80